Time;durP1;ratioP1;P1;durP2;ratioP2;P2;SDS_P1;SDS_P2;PMS_P1;PMS_P2;Temp;Humidity;BMP_temperature;BMP_pressure;BME280_temperature;BME280_humidity;BME280_pressure;Samples;Min_cycle;Max_cycle;Signal;HPM_P1;HPM_P2
2022/12/07 00:01:24;;;;;;;1.52;0.85;;;20.10;53.20;;;;;;5042169;28;43518;-61
2022/12/07 00:03:56;;;;;;;1.10;0.70;;;20.10;53.10;;;;;;5040695;28;44979;-61
2022/12/07 00:06:24;;;;;;;1.33;0.90;;;20.10;53.00;;;;;;5041304;28;43454;-61
2022/12/07 00:08:51;;;;;;;1.20;0.70;;;20.10;53.10;;;;;;5041349;28;43536;-60
2022/12/07 00:11:20;;;;;;;2.78;0.93;;;20.10;53.10;;;;;;5040204;28;43472;-61
2022/12/07 00:13:52;;;;;;;0.90;0.60;;;20.10;53.10;;;;;;5029547;28;45201;-61
2022/12/07 00:16:21;;;;;;;0.98;0.70;;;20.10;53.00;;;;;;5038562;28;43910;-61
2022/12/07 00:18:49;;;;;;;1.67;0.70;;;20.10;53.10;;;;;;5025751;28;43652;-61
2022/12/07 00:21:19;;;;;;;1.50;0.75;;;20.10;53.10;;;;;;5033236;28;43441;-61
2022/12/07 00:23:48;;;;;;;1.97;0.80;;;20.10;53.10;;;;;;5034940;28;43900;-61
2022/12/07 00:26:21;;;;;;;0.90;0.70;;;20.00;53.10;;;;;;5041030;28;43421;-61
2022/12/07 00:28:50;;;;;;;0.90;0.73;;;20.10;53.10;;;;;;5041869;28;43478;-60
2022/12/07 00:31:21;;;;;;;1.17;0.70;;;20.00;53.10;;;;;;5041314;28;43507;-61
2022/12/07 00:33:49;;;;;;;1.97;0.70;;;20.00;53.10;;;;;;5041811;28;43901;-61
2022/12/07 00:36:21;;;;;;;1.60;0.93;;;20.00;53.10;;;;;;5041261;28;43455;-61
2022/12/07 00:38:54;;;;;;;1.90;0.95;;;20.00;53.00;;;;;;5040876;28;43404;-61
2022/12/07 00:41:23;;;;;;;0.85;0.63;;;20.00;53.00;;;;;;5041586;28;43525;-61
2022/12/07 00:43:51;;;;;;;1.17;0.80;;;20.00;53.00;;;;;;5041125;28;43895;-61
2022/12/07 00:46:20;;;;;;;1.40;0.80;;;20.00;53.00;;;;;;5021347;28;43954;-61
2022/12/07 00:48:48;;;;;;;1.52;0.90;;;20.00;53.10;;;;;;5030004;28;43382;-60
2022/12/07 00:51:18;;;;;;;0.98;0.60;;;20.00;53.00;;;;;;5041344;28;43446;-61
2022/12/07 00:53:46;;;;;;;1.63;0.90;;;20.00;53.00;;;;;;5040337;28;44952;-61
2022/12/07 00:56:19;;;;;;;1.73;0.75;;;19.90;53.00;;;;;;5040901;28;43477;-61
2022/12/07 00:58:55;;;;;;;1.52;0.80;;;19.90;53.00;;;;;;5041386;28;43398;-60
2022/12/07 01:01:24;;;;;;;1.33;0.90;;;19.90;53.10;;;;;;5040709;28;43399;-61
2022/12/07 01:03:52;;;;;;;0.85;0.50;;;19.90;53.10;;;;;;5040641;28;43749;-61
2022/12/07 01:06:21;;;;;;;1.85;1.05;;;19.90;53.10;;;;;;5040790;28;43850;-61
2022/12/07 01:08:49;;;;;;;1.52;0.82;;;19.90;53.20;;;;;;5041066;28;43467;-60
2022/12/07 01:11:19;;;;;;;1.23;0.80;;;19.80;53.10;;;;;;5035059;28;43424;-61
2022/12/07 01:13:46;;;;;;;0.95;0.60;;;19.80;53.10;;;;;;5040016;28;45116;-61
2022/12/07 01:16:16;;;;;;;1.08;0.80;;;19.80;53.20;;;;;;5040815;28;43507;-61
2022/12/07 01:18:46;;;;;;;2.35;1.10;;;19.80;53.20;;;;;;5040693;28;43529;-61
2022/12/07 01:21:17;;;;;;;2.28;1.00;;;19.80;53.20;;;;;;5040500;28;44042;-61
2022/12/07 01:23:44;;;;;;;1.90;0.82;;;19.80;53.20;;;;;;5021762;28;43955;-61
2022/12/07 01:26:15;;;;;;;1.88;1.00;;;19.80;53.20;;;;;;5031326;28;43379;-61
2022/12/07 01:28:43;;;;;;;1.23;0.82;;;19.80;53.20;;;;;;5043535;28;43433;-61
2022/12/07 01:31:16;;;;;;;2.53;1.10;;;19.80;53.20;;;;;;5044620;28;43447;-61
2022/12/07 01:33:48;;;;;;;1.23;0.70;;;19.80;53.10;;;;;;5044643;28;44992;-61
2022/12/07 01:36:25;;;;;;;1.92;0.88;;;19.70;53.10;;;;;;5033078;28;43380;-61
2022/12/07 01:38:57;;;;;;;2.00;1.00;;;19.70;53.10;;;;;;5039042;28;43623;-62
2022/12/07 01:41:26;;;;;;;1.35;0.55;;;19.70;53.10;;;;;;5033623;28;43439;-61
2022/12/07 01:44:15;;;;;;;1.50;0.95;;;19.60;53.10;;;;;;5032967;28;44888;-61
2022/12/07 01:47:03;;;;;;;1.20;0.73;;;19.70;53.80;;;;;;5044268;28;43483;-61
2022/12/07 01:49:42;;;;;;;1.80;0.80;;;19.60;53.10;;;;;;5042977;28;43436;-62
2022/12/07 01:52:21;;;;;;;2.65;0.80;;;19.60;53.20;;;;;;5044196;28;43457;-61
2022/12/07 01:54:54;;;;;;;1.65;0.68;;;19.60;53.30;;;;;;5027975;28;44026;-61
2022/12/07 01:57:21;;;;;;;0.95;0.60;;;19.60;53.30;;;;;;5043396;28;43974;-61
2022/12/07 01:59:51;;;;;;;1.20;0.60;;;19.60;53.20;;;;;;5043499;28;43509;-61
2022/12/07 02:02:23;;;;;;;1.48;0.70;;;19.60;53.30;;;;;;5043637;28;43523;-61
2022/12/07 02:04:53;;;;;;;1.15;0.75;;;19.60;53.30;;;;;;5026999;28;44950;-61
2022/12/07 02:07:22;;;;;;;1.10;0.75;;;19.60;53.30;;;;;;5043688;28;43509;-61
2022/12/07 02:09:50;;;;;;;1.52;0.80;;;19.60;53.40;;;;;;5043160;28;43481;-61
2022/12/07 02:12:17;;;;;;;1.35;0.63;;;19.50;53.30;;;;;;5029574;28;43625;-61
2022/12/07 02:14:45;;;;;;;1.27;0.60;;;19.50;53.40;;;;;;5042877;28;44067;-62
2022/12/07 02:17:16;;;;;;;2.38;0.85;;;19.50;53.40;;;;;;5042884;28;43921;-61
2022/12/07 02:20:04;;;;;;;1.52;0.68;;;19.50;53.40;;;;;;5024567;28;43439;-61
2022/12/07 02:23:02;;;;;;;2.33;0.90;;;19.50;53.40;;;;;;5042956;28;43380;-61
2022/12/07 02:25:57;;;;;;;2.10;0.88;;;19.50;53.40;;;;;;5043001;28;45033;-61
2022/12/07 02:29:07;;;;;;;1.23;0.70;;;19.50;53.40;;;;;;5043210;28;43897;-61
2022/12/07 02:31:38;;;;;;;1.20;0.73;;;19.50;53.30;;;;;;5029678;28;43493;-62
2022/12/07 02:34:35;;;;;;;;;;;19.40;54.00;;;;;;5043840;28;43380;-62
2022/12/07 02:37:15;;;;;;;1.80;0.80;;;19.40;53.40;;;;;;5038386;28;43945;-61
2022/12/07 02:39:45;;;;;;;0.93;0.70;;;19.40;53.50;;;;;;5042708;28;43703;-61
2022/12/07 02:42:18;;;;;;;0.93;0.85;;;19.40;53.50;;;;;;5042920;28;43463;-62
2022/12/07 02:44:47;;;;;;;0.73;0.68;;;19.40;53.50;;;;;;5043247;28;43495;-61
2022/12/07 02:47:18;;;;;;;1.40;0.98;;;19.40;53.50;;;;;;5043319;28;43985;-61
2022/12/07 02:49:46;;;;;;;0.95;0.60;;;19.40;53.50;;;;;;5031196;28;43419;-62
2022/12/07 02:52:13;;;;;;;1.23;0.70;;;19.40;53.50;;;;;;5027295;28;43438;-62
2022/12/07 02:54:41;;;;;;;1.75;1.00;;;19.40;53.40;;;;;;5043218;28;43451;-61
2022/12/07 02:57:39;;;;;;;2.35;0.85;;;19.40;53.40;;;;;;5043231;28;44879;-61
2022/12/07 03:00:11;;;;;;;1.67;0.60;;;19.40;53.40;;;;;;5042168;28;44207;-61
2022/12/07 03:02:53;;;;;;;1.15;0.65;;;19.40;53.40;;;;;;5042841;28;43446;-62
2022/12/07 03:05:46;;;;;;;1.17;0.63;;;19.30;53.40;;;;;;5027442;28;43401;-61
2022/12/07 03:08:39;;;;;;;1.35;0.70;;;19.30;53.40;;;;;;5022730;28;43879;-61
2022/12/07 03:11:10;;;;;;;1.73;0.77;;;19.30;53.50;;;;;;5032523;28;43415;-61
2022/12/07 03:13:41;;;;;;;0.95;0.60;;;19.30;53.50;;;;;;5041182;28;43395;-62
2022/12/07 03:16:27;;;;;;;;;;;19.30;53.50;;;;;;5043408;28;43472;-61
2022/12/07 03:19:17;;;;;;;1.05;0.52;;;19.20;53.50;;;;;;5041938;28;44195;-61
2022/12/07 03:21:51;;;;;;;1.05;0.80;;;19.30;53.40;;;;;;5027029;28;43391;-62
2022/12/07 03:24:24;;;;;;;0.75;0.60;;;19.20;53.30;;;;;;5042856;28;43375;-62
2022/12/07 03:26:56;;;;;;;1.45;0.65;;;19.20;53.30;;;;;;5042714;28;43429;-61
2022/12/07 03:29:28;;;;;;;1.90;0.57;;;19.20;53.40;;;;;;5041650;28;43895;-62
2022/12/07 03:32:05;;;;;;;1.58;0.68;;;19.20;53.40;;;;;;5042761;28;43787;-62
2022/12/07 03:35:03;;;;;;;1.10;0.52;;;19.20;53.40;;;;;;5023129;28;43450;-61
2022/12/07 03:37:55;;;;;;;1.45;0.82;;;19.10;53.40;;;;;;5021679;28;43447;-62
2022/12/07 03:40:37;;;;;;;1.10;0.73;;;19.20;53.50;;;;;;5035126;28;44767;-61
2022/12/07 03:43:05;;;;;;;0.90;0.82;;;19.10;53.50;;;;;;5041812;28;43485;-62
2022/12/07 03:45:42;;;;;;;1.15;0.75;;;19.10;53.50;;;;;;5042261;28;43480;-61
2022/12/07 03:48:33;;;;;;;2.83;0.70;;;19.10;53.50;;;;;;5041413;28;43475;-61
2022/12/07 03:51:12;;;;;;;1.57;0.83;;;19.10;53.50;;;;;;5042182;28;44018;-61
2022/12/07 03:53:46;;;;;;;2.17;0.80;;;19.10;54.20;;;;;;5042415;28;44155;-62
2022/12/07 03:56:14;;;;;;;1.08;0.60;;;19.00;53.50;;;;;;5041400;28;43438;-62
2022/12/07 03:58:42;;;;;;;1.02;0.65;;;19.00;53.60;;;;;;5041270;28;44025;-62
2022/12/07 04:01:10;;;;;;;1.80;0.85;;;19.00;53.60;;;;;;5041901;28;43807;-62
2022/12/07 04:03:37;;;;;;;2.33;0.93;;;19.00;53.50;;;;;;5041003;28;43931;-61
2022/12/07 04:06:04;;;;;;;1.65;0.63;;;19.00;53.50;;;;;;5028416;28;43529;-62
2022/12/07 04:08:32;;;;;;;1.90;0.77;;;19.00;53.60;;;;;;5039504;28;43463;-61
2022/12/07 04:10:59;;;;;;;1.38;0.80;;;19.00;53.60;;;;;;5041517;28;43790;-61
2022/12/07 04:13:26;;;;;;;1.25;0.65;;;19.00;53.70;;;;;;5032605;28;43490;-61
2022/12/07 04:15:54;;;;;;;1.45;0.70;;;18.90;53.60;;;;;;5035833;28;43477;-61
2022/12/07 04:18:21;;;;;;;1.05;0.60;;;18.90;53.70;;;;;;5040516;28;43439;-62
2022/12/07 04:20:48;;;;;;;1.55;0.60;;;19.00;53.70;;;;;;5041759;28;45134;-61
2022/12/07 04:23:16;;;;;;;0.93;0.60;;;19.00;53.50;;;;;;5040923;28;43940;-61
2022/12/07 04:25:43;;;;;;;1.50;0.93;;;19.00;53.50;;;;;;5041770;28;44039;-62
2022/12/07 04:28:10;;;;;;;1.02;0.50;;;18.90;53.40;;;;;;5041382;28;43433;-62
2022/12/07 04:30:37;;;;;;;1.23;0.75;;;18.90;53.30;;;;;;5040884;28;44800;-62
2022/12/07 04:33:04;;;;;;;1.30;0.75;;;18.90;53.40;;;;;;5041367;28;43459;-61
2022/12/07 04:35:32;;;;;;;2.25;0.80;;;18.90;53.50;;;;;;5041785;28;43507;-61
2022/12/07 04:37:59;;;;;;;1.90;0.60;;;18.90;53.50;;;;;;5041028;28;43535;-61
2022/12/07 04:40:26;;;;;;;1.98;0.68;;;18.90;53.60;;;;;;5041662;28;44814;-62
2022/12/07 04:42:53;;;;;;;1.67;0.60;;;18.80;53.60;;;;;;5040949;28;43383;-61
2022/12/07 04:45:21;;;;;;;0.70;0.70;;;18.80;53.70;;;;;;5041019;28;43416;-62
2022/12/07 04:47:48;;;;;;;0.50;0.50;;;18.80;53.70;;;;;;5037409;28;43439;-61
2022/12/07 04:50:15;;;;;;;1.75;0.80;;;18.80;53.70;;;;;;5026285;28;44827;-62
2022/12/07 04:52:42;;;;;;;1.02;0.65;;;18.80;53.70;;;;;;5040211;28;43660;-61
2022/12/07 04:55:10;;;;;;;1.05;0.80;;;18.80;53.70;;;;;;5041636;28;43471;-62
2022/12/07 04:57:37;;;;;;;1.02;0.70;;;18.80;53.70;;;;;;5040769;28;43597;-62
2022/12/07 05:00:05;;;;;;;1.10;0.68;;;18.80;53.70;;;;;;5040602;28;44703;-61
2022/12/07 05:02:32;;;;;;;1.63;0.80;;;18.80;53.70;;;;;;5043595;28;43356;-61
2022/12/07 05:05:00;;;;;;;0.60;0.60;;;18.80;53.70;;;;;;5038598;28;43420;-61
2022/12/07 05:07:27;;;;;;;1.30;0.98;;;18.80;53.70;;;;;;5043870;28;43489;-62
2022/12/07 05:09:54;;;;;;;1.38;0.80;;;18.70;53.60;;;;;;5044324;28;44949;-61
2022/12/07 05:12:21;;;;;;;1.83;0.65;;;18.70;53.60;;;;;;5038528;28;43471;-62
2022/12/07 05:14:49;;;;;;;1.90;0.50;;;18.70;53.70;;;;;;5043982;28;43484;-62
2022/12/07 05:17:16;;;;;;;1.70;0.85;;;18.70;53.60;;;;;;5044737;28;43597;-61
2022/12/07 05:19:44;;;;;;;1.05;0.60;;;18.70;53.60;;;;;;5043504;28;44692;-62
2022/12/07 05:22:11;;;;;;;1.27;0.75;;;18.70;53.60;;;;;;5044356;28;43441;-61
2022/12/07 05:24:38;;;;;;;0.82;0.68;;;18.70;53.60;;;;;;5043986;28;43476;-62
2022/12/07 05:27:06;;;;;;;1.73;0.85;;;18.70;53.60;;;;;;5044164;28;43480;-61
2022/12/07 05:29:34;;;;;;;1.70;0.70;;;18.70;53.70;;;;;;5043921;28;44984;-62
2022/12/07 05:32:01;;;;;;;1.10;0.60;;;18.70;53.60;;;;;;5044582;28;43920;-62
2022/12/07 05:34:28;;;;;;;2.00;0.88;;;18.60;53.50;;;;;;5043077;28;43391;-62
2022/12/07 05:36:56;;;;;;;3.10;1.05;;;18.60;53.60;;;;;;5044654;28;43596;-63
2022/12/07 05:39:23;;;;;;;0.85;0.73;;;18.60;53.60;;;;;;5043511;28;43896;-62
2022/12/07 05:44:36;;;;;;;1.42;0.95;;;18.70;53.80;;;;;;5039696;28;43310;-62
2022/12/07 05:47:03;;;;;;;1.42;0.77;;;18.60;53.70;;;;;;5044587;28;43462;-62
2022/12/07 05:49:31;;;;;;;1.90;0.60;;;18.60;53.70;;;;;;5042849;28;44629;-61
2022/12/07 05:51:59;;;;;;;2.40;0.70;;;18.60;53.80;;;;;;5043993;28;43752;-62
2022/12/07 05:54:26;;;;;;;1.13;0.65;;;18.60;53.70;;;;;;5043837;28;43460;-61
2022/12/07 05:56:53;;;;;;;2.25;0.90;;;18.50;53.60;;;;;;5043198;28;43600;-62
2022/12/07 05:59:24;;;;;;;2.78;1.25;;;18.50;53.60;;;;;;5043178;28;45111;-62
2022/12/07 06:01:54;;;;;;;1.67;0.85;;;18.50;53.60;;;;;;5041540;28;43494;-61
2022/12/07 06:04:23;;;;;;;1.63;0.77;;;18.50;53.70;;;;;;5041009;28;43503;-62
2022/12/07 06:06:50;;;;;;;1.70;0.90;;;18.50;53.70;;;;;;5043438;28;43463;-61
2022/12/07 06:09:19;;;;;;;1.70;0.98;;;18.50;53.70;;;;;;5034954;28;45262;-62
2022/12/07 06:14:33;;;;;;;0.80;0.70;;;18.50;53.70;;;;;;5024468;28;43448;-62
2022/12/07 06:17:00;;;;;;;1.98;0.98;;;18.50;53.60;;;;;;5037958;28;43495;-63
2022/12/07 06:19:28;;;;;;;2.47;0.98;;;18.50;53.60;;;;;;5042153;28;45296;-63
2022/12/07 06:21:55;;;;;;;2.45;1.02;;;18.50;53.50;;;;;;5028477;28;43470;-62
2022/12/07 06:24:23;;;;;;;1.55;0.70;;;18.50;53.50;;;;;;5038690;28;43439;-62
2022/12/07 06:26:51;;;;;;;2.08;1.00;;;18.50;53.50;;;;;;5031223;28;43498;-62
2022/12/07 06:29:19;;;;;;;1.63;0.80;;;18.50;53.50;;;;;;5031213;28;44011;-62
2022/12/07 06:31:46;;;;;;;2.42;1.00;;;18.50;53.50;;;;;;5039307;28;45002;-62
2022/12/07 06:34:16;;;;;;;2.42;1.10;;;18.50;53.50;;;;;;5035517;28;43455;-62
2022/12/07 06:36:44;;;;;;;0.70;0.70;;;18.50;53.50;;;;;;5037350;28;43465;-62
2022/12/07 06:39:11;;;;;;;1.10;0.70;;;18.50;53.50;;;;;;5030375;28;44029;-63
2022/12/07 06:41:39;;;;;;;1.00;0.82;;;18.50;53.50;;;;;;5038414;28;43531;-63
2022/12/07 06:44:07;;;;;;;1.30;0.80;;;18.50;53.50;;;;;;5038600;28;43487;-62
2022/12/07 06:46:37;;;;;;;1.88;0.80;;;18.50;53.50;;;;;;5029808;28;43460;-62
2022/12/07 06:49:05;;;;;;;0.93;0.60;;;18.50;53.50;;;;;;5042096;28;43895;-62
2022/12/07 06:51:36;;;;;;;1.38;0.88;;;18.50;53.50;;;;;;5027033;28;43760;-62
2022/12/07 06:54:04;;;;;;;1.63;0.80;;;18.50;53.50;;;;;;5039569;28;43417;-62
2022/12/07 06:56:31;;;;;;;2.35;0.98;;;18.50;53.50;;;;;;5031799;28;43503;-63
2022/12/07 06:58:58;;;;;;;1.33;0.93;;;18.50;53.50;;;;;;5040154;28;44745;-62
2022/12/07 07:01:26;;;;;;;3.17;0.93;;;18.50;53.50;;;;;;5027392;28;43735;-62
2022/12/07 07:03:53;;;;;;;1.42;0.80;;;18.50;53.50;;;;;;5039213;28;43443;-60
2022/12/07 07:06:20;;;;;;;2.67;0.93;;;18.50;53.50;;;;;;5029938;28;43479;-62
2022/12/07 07:08:48;;;;;;;3.13;1.00;;;18.50;53.50;;;;;;5039406;28;44059;-62
2022/12/07 07:11:15;;;;;;;2.28;0.88;;;18.50;53.50;;;;;;5031130;28;43870;-63
2022/12/07 07:13:43;;;;;;;2.60;1.15;;;18.60;53.50;;;;;;5038162;28;43490;-63
2022/12/07 07:16:11;;;;;;;2.53;1.08;;;18.60;53.50;;;;;;5031315;28;43496;-63
2022/12/07 07:18:38;;;;;;;2.50;0.85;;;18.70;53.50;;;;;;5030062;28;44776;-63
2022/12/07 07:21:05;;;;;;;1.70;0.70;;;18.70;53.40;;;;;;5038280;28;43502;-62
2022/12/07 07:23:33;;;;;;;1.58;1.00;;;18.70;53.30;;;;;;5026229;28;43440;-63
2022/12/07 07:26:00;;;;;;;3.08;1.10;;;18.80;53.30;;;;;;5035157;28;43425;-63
2022/12/07 07:28:27;;;;;;;2.63;1.00;;;18.90;53.20;;;;;;5025250;28;44795;-63
2022/12/07 07:30:55;;;;;;;1.75;0.80;;;19.00;53.10;;;;;;5029347;28;43954;-63
2022/12/07 07:33:22;;;;;;;1.25;0.80;;;19.30;53.10;;;;;;5024959;28;43415;-63
2022/12/07 07:35:49;;;;;;;1.75;0.88;;;19.50;52.80;;;;;;5024722;28;43514;-63
2022/12/07 07:38:17;;;;;;;2.10;1.10;;;19.70;52.80;;;;;;5024954;28;43891;-62
2022/12/07 07:40:44;;;;;;;3.65;1.00;;;19.80;52.40;;;;;;5022041;28;43831;-62
2022/12/07 07:43:12;;;;;;;1.20;0.80;;;20.00;52.30;;;;;;5031350;28;43552;-63
2022/12/07 07:45:40;;;;;;;2.00;0.93;;;20.10;52.10;;;;;;5028299;28;43649;-63
2022/12/07 07:48:07;;;;;;;1.77;0.77;;;20.20;51.90;;;;;;5031272;28;44998;-63
2022/12/07 07:50:34;;;;;;;2.78;0.82;;;20.30;51.80;;;;;;5038016;28;43500;-63
2022/12/07 07:53:02;;;;;;;1.25;0.80;;;20.50;51.60;;;;;;5049986;28;43412;-63
2022/12/07 07:55:29;;;;;;;4.97;1.25;;;20.60;51.40;;;;;;5029003;28;43419;-63
2022/12/07 07:57:56;;;;;;;2.22;0.80;;;20.70;51.30;;;;;;5023734;28;44686;-60
2022/12/07 08:00:24;;;;;;;6.05;1.52;;;20.70;51.20;;;;;;5027639;28;43491;-62
2022/12/07 08:02:52;;;;;;;3.65;1.10;;;20.80;51.10;;;;;;5030883;28;43506;-62
2022/12/07 08:05:19;;;;;;;2.63;1.08;;;21.00;50.80;;;;;;5028040;28;43542;-62
2022/12/07 08:07:46;;;;;;;3.67;1.10;;;21.10;50.70;;;;;;5031601;28;45063;-62
2022/12/07 08:10:14;;;;;;;3.38;1.15;;;21.20;50.50;;;;;;5030401;28;43705;-62
2022/12/07 08:15:30;;;;;;;3.70;0.95;;;21.50;50.20;;;;;;5030779;28;43474;-62
2022/12/07 08:17:58;;;;;;;2.88;1.38;;;21.60;50.10;;;;;;5025967;28;43809;-62
2022/12/07 08:20:26;;;;;;;2.55;1.10;;;21.60;49.90;;;;;;5032839;28;43531;-62
2022/12/07 08:22:53;;;;;;;1.52;1.00;;;21.70;49.70;;;;;;5024928;28;43434;-62
2022/12/07 08:25:24;;;;;;;3.33;0.95;;;21.80;50.00;;;;;;5038555;28;43491;-62
2022/12/07 08:27:52;;;;;;;2.80;1.25;;;21.80;49.80;;;;;;5026973;28;43757;-62
2022/12/07 08:30:20;;;;;;;2.40;1.02;;;21.90;49.80;;;;;;5023360;28;44030;-62
2022/12/07 08:32:48;;;;;;;2.65;1.08;;;21.90;49.70;;;;;;5027326;28;43364;-62
2022/12/07 08:35:16;;;;;;;3.42;1.17;;;22.00;49.70;;;;;;5031891;28;43505;-63
2022/12/07 08:37:43;;;;;;;1.27;0.95;;;22.00;49.60;;;;;;5031314;28;43996;-62
2022/12/07 08:40:15;;;;;;;1.40;1.00;;;22.10;49.60;;;;;;5036947;28;43558;-62
2022/12/07 08:42:44;;;;;;;4.55;1.00;;;22.20;49.50;;;;;;5032785;28;43452;-61
2022/12/07 08:45:17;;;;;;;1.55;0.90;;;22.20;49.50;;;;;;5031867;28;43595;-61
2022/12/07 08:47:58;;;;;;;2.75;0.90;;;22.30;49.20;;;;;;5027635;28;44054;-62
2022/12/07 08:50:27;;;;;;;3.55;1.13;;;22.40;49.00;;;;;;5023575;28;43517;-61
2022/12/07 08:52:57;;;;;;;1.77;0.95;;;22.40;49.00;;;;;;5032750;28;43510;-62
2022/12/07 08:55:26;;;;;;;1.60;1.05;;;22.40;49.30;;;;;;5031468;28;43356;-61
2022/12/07 08:57:53;;;;;;;2.88;1.00;;;22.50;49.10;;;;;;5026518;28;44913;-61
2022/12/07 09:00:21;;;;;;;1.60;0.90;;;22.50;49.10;;;;;;5028016;28;43558;-62
2022/12/07 09:02:48;;;;;;;1.10;0.85;;;22.50;48.90;;;;;;5029300;28;43529;-62
2022/12/07 09:05:15;;;;;;;1.90;1.17;;;22.50;49.20;;;;;;5031777;28;43419;-63
2022/12/07 09:07:46;;;;;;;2.10;0.90;;;22.50;49.00;;;;;;5028392;28;43879;-62
2022/12/07 09:10:13;;;;;;;2.07;1.00;;;22.60;49.10;;;;;;5028088;28;44340;-61
2022/12/07 09:12:40;;;;;;;1.63;1.05;;;22.60;49.10;;;;;;5027094;28;43490;-60
2022/12/07 09:15:08;;;;;;;1.38;0.80;;;22.60;49.00;;;;;;5036762;28;43554;-60
2022/12/07 09:17:36;;;;;;;1.52;0.80;;;22.60;49.00;;;;;;5026344;28;43966;-60
2022/12/07 09:20:05;;;;;;;1.98;0.82;;;22.50;48.90;;;;;;5035992;28;43874;-60
2022/12/07 09:22:33;;;;;;;2.80;1.20;;;22.50;49.00;;;;;;5028362;28;43472;-60
2022/12/07 09:25:02;;;;;;;3.90;2.10;;;22.50;48.90;;;;;;5033802;28;43529;-60
2022/12/07 09:27:30;;;;;;;5.25;2.42;;;22.40;48.90;;;;;;5027834;28;44569;-60
2022/12/07 09:29:57;;;;;;;13.07;4.57;;;22.40;49.00;;;;;;5032812;28;44130;-60
2022/12/07 09:32:25;;;;;;;16.88;6.43;;;22.40;49.00;;;;;;5033731;28;43434;-60
2022/12/07 09:34:52;;;;;;;20.63;9.82;;;22.40;49.10;;;;;;5024417;28;43579;-59
2022/12/07 09:37:20;;;;;;;30.27;14.65;;;22.30;49.20;;;;;;5023545;28;44865;-60
2022/12/07 09:39:48;;;;;;;41.40;21.60;;;22.30;49.20;;;;;;5031229;28;43701;-60
2022/12/07 09:42:29;;;;;;;49.20;25.10;;;22.20;49.30;;;;;;5038738;28;43491;-60
2022/12/07 09:44:58;;;;;;;60.72;29.60;;;22.20;49.30;;;;;;5025263;28;43511;-60
2022/12/07 09:47:27;;;;;;;64.28;30.88;;;22.10;49.30;;;;;;5035619;28;43896;-60
2022/12/07 09:50:02;;;;;;;75.18;36.55;;;22.10;49.40;;;;;;5035181;28;43423;-60
2022/12/07 09:52:30;;;;;;;80.32;39.35;;;22.00;49.50;;;;;;5028160;28;43324;-60
2022/12/07 09:55:14;;;;;;;81.22;41.80;;;22.00;49.60;;;;;;5035020;28;43405;-60
2022/12/07 09:57:43;;;;;;;76.70;37.40;;;21.90;49.60;;;;;;5034183;28;43929;-60
2022/12/07 10:00:17;;;;;;;88.50;42.25;;;21.90;49.90;;;;;;5038319;28;43993;-60
2022/12/07 10:02:49;;;;;;;101.95;47.67;;;21.80;50.00;;;;;;5024584;28;43505;-60
2022/12/07 10:05:22;;;;;;;95.80;44.13;;;21.80;50.00;;;;;;5034796;28;43711;-59
2022/12/07 10:07:50;;;;;;;96.53;45.38;;;21.80;50.10;;;;;;5024166;28;43792;-60
2022/12/07 10:10:26;;;;;;;88.05;45.00;;;21.70;50.10;;;;;;5035748;28;45446;-60
2022/12/07 10:13:06;;;;;;;92.68;44.95;;;21.70;50.10;;;;;;5037637;28;43410;-60
2022/12/07 10:15:47;;;;;;;94.05;45.78;;;21.70;50.20;;;;;;5035134;28;43495;-60
2022/12/07 10:18:19;;;;;;;;;;;21.70;50.20;;;;;;5042567;28;43792;-58
2022/12/07 10:20:48;;;;;;;87.40;44.35;;;21.70;50.30;;;;;;5032295;28;43646;-60
2022/12/07 10:23:17;;;;;;;83.78;45.17;;;21.60;50.30;;;;;;5033133;28;43464;-60
2022/12/07 10:25:45;;;;;;;81.22;43.53;;;21.60;50.30;;;;;;5038241;28;43608;-60
2022/12/07 10:28:18;;;;;;;84.63;42.78;;;21.60;50.60;;;;;;5039186;28;43869;-59
2022/12/07 10:30:58;;;;;;;80.45;41.92;;;21.60;51.10;;;;;;5029956;28;43717;-59
2022/12/07 10:33:53;;;;;;;77.05;40.90;;;21.50;50.40;;;;;;5031172;28;43509;-60
2022/12/07 10:36:25;;;;;;;75.72;40.25;;;21.50;50.50;;;;;;5027719;28;43438;-59
2022/12/07 10:39:10;;;;;;;70.75;38.65;;;21.40;50.60;;;;;;5034358;28;44027;-59
2022/12/07 10:42:02;;;;;;;70.15;38.30;;;21.40;50.60;;;;;;5038753;28;43823;-59
2022/12/07 10:44:33;;;;;;;66.05;36.58;;;21.40;50.60;;;;;;5042633;28;43375;-59
2022/12/07 10:47:14;;;;;;;73.10;38.05;;;21.30;50.60;;;;;;5032737;28;43411;-60
2022/12/07 10:50:14;;;;;;;67.00;36.40;;;21.30;50.70;;;;;;5031863;28;44958;-59
2022/12/07 10:52:54;;;;;;;64.00;36.00;;;21.30;51.50;;;;;;5035343;28;43964;-59
2022/12/07 10:55:30;;;;;;;61.05;35.85;;;21.20;50.90;;;;;;5033473;28;43414;-60
2022/12/07 10:58:06;;;;;;;61.45;34.03;;;21.20;50.90;;;;;;5028566;28;43593;-60
2022/12/07 11:01:24;;;;;;;59.90;35.10;;;21.10;51.00;;;;;;5035353;28;44985;-59
2022/12/07 11:04:14;;;;;;;64.22;36.70;;;21.10;51.10;;;;;;5005898;28;43520;-59
2022/12/07 11:06:47;;;;;;;63.03;35.47;;;21.10;51.80;;;;;;5029496;28;43406;-60
2022/12/07 11:09:33;;;;;;;61.97;36.47;;;21.10;51.20;;;;;;5031878;28;43490;-60
2022/12/07 11:13:15;;;;;;;55.60;34.03;;;21.00;51.20;;;;;;5032446;28;44063;-60
2022/12/07 11:16:06;;;;;;;54.40;32.50;;;21.00;51.20;;;;;;4990902;28;43833;-60
2022/12/07 11:19:01;;;;;;;55.20;31.67;;;21.00;51.30;;;;;;4991187;28;44058;-59
2022/12/07 11:21:48;;;;;;;52.10;31.90;;;20.90;51.20;;;;;;5032589;28;43550;-59
2022/12/07 11:24:26;;;;;;;56.60;31.60;;;20.90;51.40;;;;;;5055507;28;43790;-61
2022/12/07 11:27:11;;;;;;;47.53;29.45;;;20.90;51.40;;;;;;5032107;28;43420;-60
2022/12/07 11:29:38;;;;;;;57.13;29.98;;;20.90;51.50;;;;;;5036301;28;43538;-60
2022/12/07 11:32:14;;;;;;;46.58;27.95;;;20.90;51.40;;;;;;5033792;28;43404;-61
2022/12/07 11:34:48;;;;;;;45.70;28.33;;;20.80;51.40;;;;;;5029315;28;44400;-60
2022/12/07 11:37:21;;;;;;;41.03;26.13;;;20.80;51.50;;;;;;5038996;28;43412;-61
2022/12/07 11:39:58;;;;;;;42.85;25.73;;;20.70;51.40;;;;;;5030810;28;43469;-60
2022/12/07 11:42:29;;;;;;;39.72;24.30;;;20.70;51.50;;;;;;5028145;28;43459;-60
2022/12/07 11:44:59;;;;;;;;;;;20.70;51.50;;;;;;5040395;28;44057;-60
2022/12/07 11:48:03;;;;;;;37.08;23.50;;;20.70;51.50;;;;;;5028982;28;43767;-60
2022/12/07 11:50:53;;;;;;;35.90;22.77;;;20.60;51.60;;;;;;5024249;28;43383;-60
2022/12/07 11:53:23;;;;;;;35.33;21.52;;;20.50;51.60;;;;;;5034897;28;43557;-60
2022/12/07 11:56:09;;;;;;;37.00;21.48;;;20.50;51.60;;;;;;5036170;28;44239;-60
2022/12/07 11:58:49;;;;;;;33.83;20.75;;;20.50;51.60;;;;;;5027142;28;43466;-60
2022/12/07 12:01:33;;;;;;;31.95;19.77;;;20.50;51.60;;;;;;5027985;28;43577;-60
2022/12/07 12:04:24;;;;;;;29.30;19.35;;;20.50;51.60;;;;;;5035430;28;43575;-60
2022/12/07 12:06:51;;;;;;;31.75;19.23;;;20.50;51.70;;;;;;5023400;28;44184;-60
2022/12/07 12:09:46;;;;;;;33.75;19.33;;;20.50;51.60;;;;;;5029672;28;43444;-60
2022/12/07 12:12:27;;;;;;;27.58;18.55;;;20.50;51.70;;;;;;5039014;28;43368;-60
2022/12/07 12:15:38;;;;;;;29.65;17.83;;;20.40;51.70;;;;;;5022458;28;43593;-60
2022/12/07 12:18:15;;;;;;;25.88;17.17;;;20.40;51.90;;;;;;5030019;28;45028;-60
2022/12/07 12:20:56;;;;;;;26.52;16.20;;;20.40;51.80;;;;;;5036341;28;43478;-60
2022/12/07 12:23:48;;;;;;;28.25;16.35;;;20.30;51.80;;;;;;5022331;28;43419;-60
2022/12/07 12:26:19;;;;;;;24.20;15.70;;;20.30;51.80;;;;;;5038105;28;43412;-60
2022/12/07 12:29:00;;;;;;;24.90;15.20;;;20.30;51.90;;;;;;5033538;28;45120;-60
2022/12/07 12:31:27;;;;;;;24.95;15.13;;;20.30;51.90;;;;;;5025721;28;43479;-60
2022/12/07 12:33:57;;;;;;;23.67;15.13;;;20.20;51.80;;;;;;5022549;28;43422;-60
2022/12/07 12:36:32;;;;;;;21.73;13.82;;;20.20;51.80;;;;;;5023253;28;43498;-60
2022/12/07 12:39:10;;;;;;;19.52;13.30;;;20.20;51.90;;;;;;5032305;28;44221;-60
2022/12/07 12:44:20;;;;;;;20.33;12.68;;;20.10;51.80;;;;;;5039440;28;43425;-60
2022/12/07 12:46:58;;;;;;;18.88;12.00;;;20.20;51.80;;;;;;5034585;28;43416;-60
2022/12/07 12:49:26;;;;;;;19.08;12.27;;;20.10;52.40;;;;;;5032456;28;43892;-60
2022/12/07 12:51:59;;;;;;;18.70;12.07;;;20.10;51.80;;;;;;5038133;28;43552;-60
2022/12/07 12:54:32;;;;;;;18.20;12.48;;;20.10;51.70;;;;;;5028219;28;43528;-60
2022/12/07 12:57:16;;;;;;;19.15;11.35;;;20.10;52.00;;;;;;5029168;28;43488;-60
2022/12/07 12:59:53;;;;;;;16.02;11.13;;;20.10;51.80;;;;;;5032944;28;44244;-60
2022/12/07 13:02:26;;;;;;;15.15;10.30;;;20.10;51.80;;;;;;5029192;28;43490;-60
2022/12/07 13:04:57;;;;;;;17.50;11.05;;;20.10;51.80;;;;;;5033634;28;43530;-60
2022/12/07 13:07:52;;;;;;;15.15;10.57;;;20.00;51.90;;;;;;5025780;28;43483;-60
2022/12/07 13:10:34;;;;;;;15.52;10.20;;;20.00;51.80;;;;;;5024847;28;44827;-60
2022/12/07 13:13:12;;;;;;;15.38;9.90;;;19.90;51.70;;;;;;5022582;28;44049;-60
2022/12/07 13:15:45;;;;;;;14.43;9.93;;;19.90;51.90;;;;;;5029524;28;43412;-60
2022/12/07 13:18:34;;;;;;;14.32;9.05;;;19.90;51.90;;;;;;5034798;28;43527;-60
2022/12/07 13:21:07;;;;;;;12.55;8.82;;;19.90;52.00;;;;;;5039570;28;43877;-60
2022/12/07 13:23:45;;;;;;;13.05;8.65;;;19.80;52.00;;;;;;5029778;28;43492;-60